Bookmark and Share
Track history (hours):
 

Knossos Palace

Last reported at 2014-Apr-18 02:33 UTC. Time now 2014-Apr-18 16:18 UTC.
Position N 35°37' E 024°58'.

Length 214 m; beam 26.4 m; draft 7.3 m.

Type: Passenger vessel. MMSI: 237641000.

NotesDate/timePositionNaut miles runAvg speedWind from/ knotsBaromVisibWave heightAir tempDewpointWater temp
2014-Apr-18 02:33N 35°37' E 024°58'1918.7
2014-Apr-18 01:33N 35°54' E 024°47'1818.1
2014-Apr-18 00:33N 36°09' E 024°35'1918.8
2014-Apr-17 23:33N 36°25' E 024°23'1919.0
2014-Apr-17 22:33N 36°42' E 024°12'5819.3
2014-Apr-17 19:33N 37°36' E 023°45'1818.6
2014-Apr-17 18:34N 37°53' E 023°37'4 3.6
2014-Apr-17 17:33N 37°57' E 023°38'0 0.0
2014-Apr-17 16:33N 37°57' E 023°38'0 0.0
2014-Apr-17 15:33N 37°57' E 023°38'1716.6
2014-Apr-17 14:33N 37°41' E 023°46'3724.6
2014-Apr-17 13:03N 37°06' E 024°02'1224.3
2014-Apr-17 12:33N 36°55' E 024°07'2424.4
2014-Apr-17 11:34N 36°33' E 024°19'2423.9
2014-Apr-17 10:33N 36°12' E 024°34'2423.9
2014-Apr-17 09:34N 35°51' E 024°48'2424.0
2014-Apr-17 08:33N 35°30' E 025°04'10 2.4
2014-Apr-17 04:16N 35°21' E 025°09'4 5.0
2014-Apr-17 03:23N 35°25' E 025°07'1618.6
2014-Apr-17 02:33N 35°38' E 024°58'1918.8
2014-Apr-17 01:33N 35°55' E 024°46'1919.0
2014-Apr-17 00:33N 36°11' E 024°34'1118.9
2014-Apr-17 00:00N 36°18' E 024°24'1023.3 230 / 131009.410.8 17.412.520.0
2014-Apr-16 23:33N 36°28' E 024°22'2019.8
2014-Apr-16 22:33N 36°46' E 024°10'2219.2
2014-Apr-16 21:26N 37°06' E 024°01'3618.9
2014-Apr-16 19:33N 37°39' E 023°44'1818.2
2014-Apr-16 18:34N 37°56' E 023°37'1 1.1
2014-Apr-16 17:32N 37°57' E 023°38'0 0.0
2014-Apr-16 16:32N 37°57' E 023°38'0 0.0
2014-Apr-16 15:34N 37°57' E 023°38'1515.2
2014-Apr-16 14:33N 37°42' E 023°44'2824.7
2014-Apr-16 13:25N 37°16' E 023°57'2124.7
2014-Apr-16 12:34N 36°56' E 024°07'2524.9
2014-Apr-16 11:34N 36°33' E 024°19'2424.3
2014-Apr-16 10:33N 36°12' E 024°33'2424.2
2014-Apr-16 09:33N 35°51' E 024°49'2624.5
2014-Apr-16 08:30N 35°29' E 025°05'4 0.7
2014-Apr-16 03:05N 35°32' E 025°02'1119.9
2014-Apr-16 02:33N 35°41' E 024°56'2019.7
2014-Apr-16 01:33N 35°58' E 024°43'2019.6
2014-Apr-16 00:32N 36°15' E 024°31'610.9
2014-Apr-16 00:00N 36°18' E 024°24'1227.1 240 / 301011.710.8 16.512.320.0
2014-Apr-15 23:32N 36°30' E 024°20'1818.0
2014-Apr-15 22:33N 36°46' E 024°11'1918.6
2014-Apr-15 21:32N 37°04' E 024°02'1919.0
2014-Apr-15 20:31N 37°21' E 023°52'1919.2
2014-Apr-15 19:33N 37°38' E 023°43'1818.0
2014-Apr-15 18:33N 37°56' E 023°37'1 1.4
2014-Apr-15 17:31N 37°57' E 023°38'0 0.0
2014-Apr-15 16:31N 37°57' E 023°38'0 0.0
2014-Apr-15 15:31N 37°57' E 023°38'0 0.0
2014-Apr-15 14:31N 37°57' E 023°38'0 0.0
2014-Apr-15 12:32N 37°57' E 023°38'0 0.0
2014-Apr-15 11:32N 37°57' E 023°38'0 0.0
2014-Apr-15 10:32N 37°57' E 023°38'0 0.0
2014-Apr-15 09:32N 37°57' E 023°38'0 0.0
2014-Apr-15 08:32N 37°57' E 023°38'0 0.0
2014-Apr-15 07:32N 37°57' E 023°38'0 0.0
2014-Apr-15 06:32N 37°57' E 023°38'0 0.0
2014-Apr-15 05:32N 37°57' E 023°38'0 0.0
2014-Apr-15 02:33N 37°57' E 023°38'1514.7
2014-Apr-15 01:34N 37°43' E 023°44'2020.1
2014-Apr-15 00:34N 37°24' E 023°53'3255.6
2014-Apr-15 00:00N 36°54' E 024°06'1227.1 variable / 101014.110.8 16.012.720.0
2014-Apr-14 23:33N 37°05' E 024°02'2120.0
2014-Apr-14 22:32N 36°46' E 024°12'2020.2
2014-Apr-14 21:34N 36°29' E 024°22'2020.0
2014-Apr-14 20:34N 36°11' E 024°34'2020.4
2014-Apr-14 19:34N 35°54' E 024°47'2020.3
2014-Apr-14 18:34N 35°36' E 024°59'51 2.7
2014-Apr-14 00:00N 36°18' E 024°24'2617.9 060 / 161013.710.8 16.812.020.0
2014-Apr-13 22:33N 36°42' E 024°11'1918.8
2014-Apr-13 21:31N 36°60' E 024°03'3918.3
2014-Apr-13 19:25N 37°36' E 023°45'1618.4
2014-Apr-13 18:34N 37°50' E 023°37'6 4.8
2014-Apr-13 17:13N 37°57' E 023°38'0 0.0
2014-Apr-13 16:31N 37°57' E 023°38'0 0.0
2014-Apr-13 15:31N 37°57' E 023°38'0 0.0
2014-Apr-13 14:31N 37°57' E 023°38'0 0.0
2014-Apr-13 13:31N 37°57' E 023°38'0 0.0
2014-Apr-13 12:25N 37°57' E 023°38'0 0.0
2014-Apr-13 11:31N 37°57' E 023°38'0 0.0
2014-Apr-13 10:31N 37°57' E 023°38'0 0.0
2014-Apr-13 09:25N 37°57' E 023°38'0 0.0
2014-Apr-13 08:31N 37°57' E 023°38'0 0.0
2014-Apr-13 07:31N 37°57' E 023°38'0 0.0
2014-Apr-13 06:31N 37°57' E 023°38'0 0.0
2014-Apr-13 05:31N 37°57' E 023°38'0 0.0
2014-Apr-13 04:31N 37°57' E 023°38'5 5.3
2014-Apr-13 03:33N 37°52' E 023°39'5919.8
2014-Apr-13 00:33N 36°56' E 024°06'2019.7
2014-Apr-12 23:33N 36°38' E 024°16'1919.4
2014-Apr-12 22:33N 36°21' E 024°27'1919.2
2014-Apr-12 21:33N 36°04' E 024°39'1919.4
2014-Apr-12 20:33N 35°48' E 024°52'1919.2
2014-Apr-12 19:33N 35°31' E 025°04'11 0.6
2014-Apr-12 02:33N 35°40' E 024°57'1918.7
2014-Apr-12 01:33N 35°56' E 024°45'1918.5
2014-Apr-12 00:33N 36°12' E 024°33'1919.2
2014-Apr-11 23:33N 36°29' E 024°21'1918.9
2014-Apr-11 22:33N 36°45' E 024°10'2019.5
2014-Apr-11 21:30N 37°05' E 024°01'3919.9
2014-Apr-11 19:33N 37°40' E 023°42'1716.7
2014-Apr-11 18:33N 37°57' E 023°38'0 0.0
2014-Apr-11 17:33N 37°57' E 023°38'0 0.0
2014-Apr-11 16:31N 37°57' E 023°38'0 0.0
2014-Apr-11 15:31N 37°57' E 023°38'0 0.0
2014-Apr-11 14:31N 37°57' E 023°38'0 0.0
2014-Apr-11 13:31N 37°57' E 023°38'0 0.0
2014-Apr-11 12:25N 37°57' E 023°38'0 0.0
2014-Apr-11 11:25N 37°57' E 023°38'0 0.0
2014-Apr-11 10:19N 37°57' E 023°38'0 0.0
2014-Apr-11 09:31N 37°57' E 023°38'0 0.0
2014-Apr-11 08:31N 37°57' E 023°38'0 0.0
2014-Apr-11 07:19N 37°57' E 023°38'0 0.0
2014-Apr-11 06:33N 37°57' E 023°38'0 0.0
2014-Apr-11 05:33N 37°57' E 023°38'0 0.0
2014-Apr-11 04:33N 37°57' E 023°38'3 2.5
2014-Apr-11 03:33N 37°54' E 023°38'5919.5
2014-Apr-11 00:31N 36°59' E 024°05'1919.1
2014-Apr-10 23:33N 36°42' E 024°13'2218.8
2014-Apr-10 22:21N 36°22' E 024°26'1518.5
2014-Apr-10 21:33N 36°09' E 024°36'1918.6
2014-Apr-10 20:33N 35°53' E 024°48'1919.1
2014-Apr-10 19:33N 35°37' E 024°59'1817.2
2014-Apr-10 18:32N 35°21' E 025°09'0 0.0
2014-Apr-10 15:26N 35°21' E 025°09'0 0.0
2014-Apr-10 05:30N 35°21' E 025°09'1414.3
2014-Apr-10 04:33N 35°33' E 025°02'1918.6
2014-Apr-10 03:33N 35°49' E 024°50'11519.0
2014-Apr-09 21:30N 37°32' E 023°47'1819.0
2014-Apr-09 20:33N 37°49' E 023°38'8 7.9
2014-Apr-09 19:34N 37°57' E 023°38'0 0.0
2014-Apr-09 18:33N 37°57' E 023°38'0 0.0
2014-Apr-09 17:33N 37°57' E 023°38'0 0.0
2014-Apr-09 16:33N 37°57' E 023°38'0 0.0
2014-Apr-09 15:33N 37°57' E 023°38'0 0.0
2014-Apr-09 14:32N 37°57' E 023°38'0 0.0
2014-Apr-09 13:33N 37°57' E 023°38'0 0.0
2014-Apr-09 12:33N 37°57' E 023°38'0 0.0
2014-Apr-09 11:33N 37°57' E 023°38'0 0.0
2014-Apr-09 10:33N 37°57' E 023°38'0 0.0
2014-Apr-09 09:33N 37°57' E 023°38'0 0.0
2014-Apr-09 08:33N 37°57' E 023°38'0 0.0
2014-Apr-09 07:33N 37°57' E 023°38'0 0.0
2014-Apr-09 06:33N 37°57' E 023°38'0 0.0
2014-Apr-09 05:33N 37°57' E 023°38'0 0.0
2014-Apr-09 04:33N 37°57' E 023°38'6 6.0
2014-Apr-09 03:33N 37°51' E 023°40'4519.8
2014-Apr-09 01:17N 37°09' E 024°00'1520.3
2014-Apr-09 00:33N 36°55' E 024°07'2120.7
2014-Apr-08 23:33N 36°36' E 024°17'2120.3
2014-Apr-08 22:32N 36°18' E 024°29'1919.5
2014-Apr-08 21:33N 36°01' E 024°41'1919.6
2014-Apr-08 20:33N 35°44' E 024°53'7 0.4
2014-Apr-08 02:33N 35°38' E 024°58'  

Dump ship's entire track history

sailing weather and tide predictions

Knossos Palace — SYQO — position and weather